Time;durP1;ratioP1;P1;durP2;ratioP2;P2;SDS_P1;SDS_P2;PMS_P1;PMS_P2;Temp;Humidity;BMP_temperature;BMP_pressure;BME280_temperature;BME280_humidity;BME280_pressure;Samples;Min_cycle;Max_cycle;Signal;HPM_P1;HPM_P2
2024/02/25 00:00:47;;;;;;;7.82;5.15;;;;;;;;;;6184195;23;20392;-93
2024/02/25 00:03:12;;;;;;;9.23;4.20;;;;;;;;;;6183569;23;20313;-94
2024/02/25 00:05:39;;;;;;;5.78;3.63;;;;;;;;;;6183563;23;19997;-93
2024/02/25 00:08:05;;;;;;;7.47;3.78;;;;;;;;;;6183482;23;20040;-93
2024/02/25 00:10:30;;;;;;;5.25;3.78;;;;;;;;;;6184160;23;20454;-93
2024/02/25 00:12:55;;;;;;;6.67;3.50;;;;;;;;;;6183822;23;19997;-93
2024/02/25 00:15:20;;;;;;;6.38;3.53;;;;;;;;;;6183460;23;20230;-93
2024/02/25 00:17:46;;;;;;;6.88;3.78;;;;;;;;;;6183906;23;20379;-94
2024/02/25 00:20:11;;;;;;;8.43;3.95;;;;;;;;;;6183698;23;19997;-93
2024/02/25 00:22:36;;;;;;;10.63;3.80;;;;;;;;;;6183900;23;20063;-92
2024/02/25 00:25:01;;;;;;;9.67;4.10;;;;;;;;;;6183686;23;20005;-93
2024/02/25 00:27:27;;;;;;;6.50;3.58;;;;;;;;;;6183495;23;20247;-94
2024/02/25 00:29:52;;;;;;;6.73;3.47;;;;;;;;;;6183960;23;20000;-94
2024/02/25 00:32:17;;;;;;;8.55;4.20;;;;;;;;;;6183764;23;20231;-93
2024/02/25 00:34:42;;;;;;;6.80;3.50;;;;;;;;;;6183703;23;20055;-93
2024/02/25 00:37:07;;;;;;;8.00;3.78;;;;;;;;;;6185114;23;20001;-94
2024/02/25 00:39:33;;;;;;;7.05;3.55;;;;;;;;;;6183374;23;20052;-94
2024/02/25 00:42:01;;;;;;;8.13;5.00;;;;;;;;;;6183733;23;20031;-91
2024/02/25 00:44:27;;;;;;;5.18;3.35;;;;;;;;;;6183521;23;20009;-93
2024/02/25 00:46:52;;;;;;;6.57;3.70;;;;;;;;;;6158345;23;20079;-93
2024/02/25 00:49:17;;;;;;;7.10;3.87;;;;;;;;;;6159015;23;20016;-94
2024/02/25 00:51:43;;;;;;;7.00;3.80;;;;;;;;;;6158739;23;20234;-93
2024/02/25 00:54:08;;;;;;;8.15;4.65;;;;;;;;;;6159350;23;20001;-94
2024/02/25 00:56:33;;;;;;;8.03;4.07;;;;;;;;;;6158836;23;20058;-93
2024/02/25 00:58:58;;;;;;;7.57;4.13;;;;;;;;;;6185050;23;20297;-93
2024/02/25 01:01:24;;;;;;;8.23;4.73;;;;;;;;;;6160818;23;20009;-93
2024/02/25 01:03:49;;;;;;;6.05;4.35;;;;;;;;;;6161022;23;20314;-93
2024/02/25 01:06:14;;;;;;;7.68;4.35;;;;;;;;;;6160086;23;20004;-94
2024/02/25 01:08:39;;;;;;;13.40;6.00;;;;;;;;;;6160723;23;20013;-94
2024/02/25 01:11:06;;;;;;;6.28;4.43;;;;;;;;;;6160768;23;20219;-94
2024/02/25 01:13:31;;;;;;;10.27;4.65;;;;;;;;;;6160532;23;20059;-93
2024/02/25 01:15:56;;;;;;;10.07;4.03;;;;;;;;;;6186961;23;19997;-94
2024/02/25 01:18:21;;;;;;;5.60;3.88;;;;;;;;;;6160995;23;20080;-93
2024/02/25 01:20:47;;;;;;;6.80;3.65;;;;;;;;;;6160633;23;19997;-93
2024/02/25 01:23:12;;;;;;;6.95;3.30;;;;;;;;;;6160638;23;20044;-93
2024/02/25 01:25:37;;;;;;;4.68;2.92;;;;;;;;;;6160406;23;20011;-93
2024/02/25 01:28:02;;;;;;;10.50;3.70;;;;;;;;;;6160021;23;20100;-94
2024/02/25 01:30:27;;;;;;;6.35;3.35;;;;;;;;;;6160448;23;20246;-93
2024/02/25 01:32:53;;;;;;;7.32;3.22;;;;;;;;;;6160692;23;20001;-92
2024/02/25 01:35:18;;;;;;;5.30;2.90;;;;;;;;;;6160719;23;20392;-92
2024/02/25 01:37:43;;;;;;;6.20;3.60;;;;;;;;;;6160870;23;20059;-93
2024/02/25 01:40:09;;;;;;;4.88;3.60;;;;;;;;;;6160420;23;20004;-94
2024/02/25 01:42:35;;;;;;;5.85;3.28;;;;;;;;;;6160788;23;20037;-94
2024/02/25 01:45:01;;;;;;;5.93;3.08;;;;;;;;;;6166110;23;20009;-93
2024/02/25 01:47:27;;;;;;;4.68;3.20;;;;;;;;;;6184702;23;20004;-94
2024/02/25 01:49:53;;;;;;;6.85;3.30;;;;;;;;;;6184940;23;20005;-94
2024/02/25 01:52:19;;;;;;;4.30;3.10;;;;;;;;;;6185000;23;20439;-93
2024/02/25 01:54:45;;;;;;;7.43;3.10;;;;;;;;;;6185159;23;20012;-93
2024/02/25 01:57:10;;;;;;;4.55;3.30;;;;;;;;;;6185274;23;20001;-93
2024/02/25 01:59:36;;;;;;;8.48;3.78;;;;;;;;;;6184861;23;20397;-93
2024/02/25 02:02:01;;;;;;;6.90;3.75;;;;;;;;;;6184665;23;20076;-93
2024/02/25 02:04:28;;;;;;;4.88;2.95;;;;;;;;;;6185015;23;20005;-93
2024/02/25 02:06:53;;;;;;;11.25;3.53;;;;;;;;;;6184666;23;20001;-93
2024/02/25 02:09:19;;;;;;;8.05;3.83;;;;;;;;;;6185043;23;20013;-93
2024/02/25 02:11:54;;;;;;;8.82;3.53;;;;;;;;;;6184605;23;19993;-94
2024/02/25 02:14:20;;;;;;;6.32;3.35;;;;;;;;;;6185287;23;20005;-94
2024/02/25 02:16:45;;;;;;;9.05;3.67;;;;;;;;;;6185128;23;20012;-93
2024/02/25 02:19:10;;;;;;;8.80;3.47;;;;;;;;;;6184983;23;20051;-95
2024/02/25 02:21:36;;;;;;;8.27;3.85;;;;;;;;;;6185005;23;20280;-93
2024/02/25 02:24:01;;;;;;;7.63;4.47;;;;;;;;;;6184515;23;20085;-93
2024/02/25 02:26:26;;;;;;;10.40;5.00;;;;;;;;;;6184766;23;20390;-93
2024/02/25 02:28:51;;;;;;;10.15;4.72;;;;;;;;;;6185069;23;20009;-94
2024/02/25 02:31:17;;;;;;;9.02;4.22;;;;;;;;;;6185237;23;20060;-93
2024/02/25 02:33:42;;;;;;;9.32;4.65;;;;;;;;;;6184977;23;20033;-93
2024/02/25 02:36:07;;;;;;;9.75;5.18;;;;;;;;;;6184881;23;20001;-93
2024/02/25 02:38:33;;;;;;;8.35;5.00;;;;;;;;;;6185171;23;20420;-93
2024/02/25 02:40:58;;;;;;;13.80;5.28;;;;;;;;;;6185052;23;20076;-93
2024/02/25 02:43:23;;;;;;;10.10;5.00;;;;;;;;;;6184664;23;20005;-93
2024/02/25 02:45:50;;;;;;;11.73;6.47;;;;;;;;;;6185007;23;20075;-93
2024/02/25 02:48:16;;;;;;;9.20;4.95;;;;;;;;;;6184952;23;20009;-93
2024/02/25 02:50:41;;;;;;;6.97;4.75;;;;;;;;;;6184724;23;20412;-93
2024/02/25 02:53:06;;;;;;;11.33;5.30;;;;;;;;;;6184561;23;20008;-94
2024/02/25 02:55:31;;;;;;;9.82;5.85;;;;;;;;;;6184851;23;20294;-93
2024/02/25 02:57:57;;;;;;;7.95;5.28;;;;;;;;;;6184680;23;20004;-93
2024/02/25 03:00:22;;;;;;;9.15;5.18;;;;;;;;;;6184431;23;20072;-94
2024/02/25 03:02:47;;;;;;;5.70;4.60;;;;;;;;;;6185025;23;20420;-93
2024/02/25 03:05:12;;;;;;;8.63;5.23;;;;;;;;;;6184709;23;20301;-93
2024/02/25 03:07:38;;;;;;;9.50;4.93;;;;;;;;;;6184494;23;20334;-93
2024/02/25 03:10:04;;;;;;;10.45;5.00;;;;;;;;;;6184667;23;20337;-93
2024/02/25 03:12:29;;;;;;;10.35;5.47;;;;;;;;;;6184624;23;19997;-93
2024/02/25 03:14:55;;;;;;;9.40;4.90;;;;;;;;;;6185860;23;19997;-94
2024/02/25 03:17:21;;;;;;;8.88;4.88;;;;;;;;;;6184958;23;20004;-93
2024/02/25 03:19:46;;;;;;;7.25;4.47;;;;;;;;;;6184841;23;20035;-93
2024/02/25 03:22:11;;;;;;;12.18;6.05;;;;;;;;;;6184547;23;20005;-94
2024/02/25 03:24:36;;;;;;;9.70;5.00;;;;;;;;;;6184452;23;19993;-94
2024/02/25 03:27:02;;;;;;;7.90;4.72;;;;;;;;;;6184186;23;20001;-93
2024/02/25 03:29:27;;;;;;;8.15;4.20;;;;;;;;;;6184813;23;20008;-94
2024/02/25 03:31:52;;;;;;;6.78;4.28;;;;;;;;;;6184523;23;19997;-94
2024/02/25 03:34:18;;;;;;;7.03;4.55;;;;;;;;;;6183798;23;20001;-94
2024/02/25 03:36:43;;;;;;;6.57;4.10;;;;;;;;;;6184432;23;20456;-94
2024/02/25 03:39:08;;;;;;;7.73;4.83;;;;;;;;;;6184752;23;20005;-93
2024/02/25 03:41:33;;;;;;;9.60;4.72;;;;;;;;;;6184360;23;20223;-93
2024/02/25 03:43:59;;;;;;;11.80;5.10;;;;;;;;;;6184487;23;20001;-94
2024/02/25 03:46:24;;;;;;;9.65;4.35;;;;;;;;;;6184157;23;20235;-94
2024/02/25 03:48:49;;;;;;;11.88;5.72;;;;;;;;;;6184210;23;20017;-93
2024/02/25 03:51:14;;;;;;;8.68;4.50;;;;;;;;;;6184713;23;20412;-93
2024/02/25 03:53:39;;;;;;;7.80;4.85;;;;;;;;;;6184517;23;20455;-94
2024/02/25 03:56:05;;;;;;;9.57;4.82;;;;;;;;;;6184253;23;20409;-94
2024/02/25 03:58:30;;;;;;;10.85;5.55;;;;;;;;;;6184358;23;20466;-94
2024/02/25 04:00:56;;;;;;;8.95;4.60;;;;;;;;;;6184378;23;20004;-93
2024/02/25 04:03:21;;;;;;;11.23;5.65;;;;;;;;;;6184369;23;20087;-94
2024/02/25 04:05:46;;;;;;;11.00;4.93;;;;;;;;;;6184288;23;20416;-94
2024/02/25 04:08:11;;;;;;;9.60;4.40;;;;;;;;;;6184014;23;20013;-94
2024/02/25 04:10:37;;;;;;;8.32;4.97;;;;;;;;;;6184382;23;20029;-93
2024/02/25 04:13:03;;;;;;;8.35;4.72;;;;;;;;;;6184619;23;20001;-94
2024/02/25 04:15:28;;;;;;;10.95;5.00;;;;;;;;;;6184093;23;20008;-93
2024/02/25 04:17:53;;;;;;;10.20;4.68;;;;;;;;;;6184516;23;19997;-94
2024/02/25 04:20:18;;;;;;;7.95;4.72;;;;;;;;;;6184317;23;20001;-94
2024/02/25 04:22:45;;;;;;;9.80;5.32;;;;;;;;;;6159759;23;20028;-95
2024/02/25 04:25:10;;;;;;;9.02;4.68;;;;;;;;;;6183910;23;20009;-94
2024/02/25 04:27:36;;;;;;;13.38;5.00;;;;;;;;;;6184287;23;20015;-94
2024/02/25 04:30:01;;;;;;;9.38;5.40;;;;;;;;;;6184319;23;20005;-94
2024/02/25 04:32:27;;;;;;;11.85;5.05;;;;;;;;;;6185522;23;20051;-94
2024/02/25 04:34:52;;;;;;;9.15;5.30;;;;;;;;;;6183971;23;19993;-93
2024/02/25 04:37:17;;;;;;;10.73;4.78;;;;;;;;;;6184171;23;20122;-95
2024/02/25 04:39:42;;;;;;;7.17;4.13;;;;;;;;;;6183975;23;20083;-93
2024/02/25 04:42:08;;;;;;;8.15;4.93;;;;;;;;;;6183909;23;20302;-93
2024/02/25 04:44:33;;;;;;;10.48;4.75;;;;;;;;;;6185458;23;20008;-94
2024/02/25 04:46:58;;;;;;;10.50;5.00;;;;;;;;;;6159123;23;20005;-94
2024/02/25 04:49:24;;;;;;;11.32;5.55;;;;;;;;;;6159793;23;20005;-94
2024/02/25 04:51:49;;;;;;;8.52;5.13;;;;;;;;;;6159479;23;20008;-93
2024/02/25 04:54:15;;;;;;;10.40;5.07;;;;;;;;;;6159309;23;20005;-94
2024/02/25 04:56:41;;;;;;;11.30;6.60;;;;;;;;;;6159079;23;19997;-95
2024/02/25 04:59:06;;;;;;;12.07;4.93;;;;;;;;;;6159388;23;20047;-94
2024/02/25 05:01:32;;;;;;;7.78;4.55;;;;;;;;;;6158890;23;20051;-94
2024/02/25 05:03:57;;;;;;;10.20;4.57;;;;;;;;;;6159446;23;19998;-95
2024/02/25 05:06:22;;;;;;;15.20;5.53;;;;;;;;;;6185545;23;20044;-94
2024/02/25 05:08:48;;;;;;;10.38;5.18;;;;;;;;;;6159247;23;20016;-94
2024/02/25 05:11:13;;;;;;;10.10;5.95;;;;;;;;;;6159176;23;19993;-94
2024/02/25 05:13:38;;;;;;;10.57;5.70;;;;;;;;;;6159291;23;20001;-93
2024/02/25 05:16:05;;;;;;;8.35;5.18;;;;;;;;;;6158754;23;20390;-94
2024/02/25 05:18:30;;;;;;;9.68;5.85;;;;;;;;;;6159804;23;20420;-94
2024/02/25 05:20:55;;;;;;;9.07;4.97;;;;;;;;;;6160120;23;20067;-94
2024/02/25 05:23:21;;;;;;;9.05;5.15;;;;;;;;;;6159326;23;20327;-94
2024/02/25 05:25:46;;;;;;;9.57;5.25;;;;;;;;;;6159149;23;20369;-93
2024/02/25 05:28:11;;;;;;;9.95;5.43;;;;;;;;;;6158945;23;20017;-93
2024/02/25 05:30:37;;;;;;;11.52;6.03;;;;;;;;;;6159251;23;20008;-93
2024/02/25 05:33:03;;;;;;;14.80;5.60;;;;;;;;;;6158983;23;20025;-93
2024/02/25 05:35:28;;;;;;;11.30;5.03;;;;;;;;;;6159079;23;20024;-94
2024/02/25 05:37:54;;;;;;;10.27;4.78;;;;;;;;;;6158749;23;20314;-94
2024/02/25 05:40:19;;;;;;;10.38;5.10;;;;;;;;;;6158754;23;20004;-94
2024/02/25 05:42:44;;;;;;;9.88;4.78;;;;;;;;;;6158884;23;20008;-94
2024/02/25 05:45:11;;;;;;;8.13;4.50;;;;;;;;;;6166554;23;20005;-94
2024/02/25 05:47:36;;;;;;;7.88;5.28;;;;;;;;;;6185764;23;20250;-94
2024/02/25 05:50:01;;;;;;;9.95;5.30;;;;;;;;;;6186549;23;20064;-94
2024/02/25 05:52:27;;;;;;;9.43;4.35;;;;;;;;;;6186208;23;20001;-95
2024/02/25 05:54:52;;;;;;;8.93;4.70;;;;;;;;;;6185529;23;20087;-95
2024/02/25 05:57:17;;;;;;;15.55;5.93;;;;;;;;;;6185695;23;20255;-94
2024/02/25 05:59:49;;;;;;;10.48;5.28;;;;;;;;;;6186058;23;20128;-93
2024/02/25 06:02:14;;;;;;;8.80;5.28;;;;;;;;;;6185918;23;19997;-94
2024/02/25 06:04:39;;;;;;;11.85;5.78;;;;;;;;;;6185822;23;20009;-94
2024/02/25 06:07:05;;;;;;;11.75;4.95;;;;;;;;;;6185529;23;19997;-94
2024/02/25 06:09:30;;;;;;;8.57;5.53;;;;;;;;;;6185606;23;20011;-95
2024/02/25 06:11:55;;;;;;;17.45;5.82;;;;;;;;;;6185561;23;20054;-94
2024/02/25 06:14:20;;;;;;;13.63;6.53;;;;;;;;;;6186011;23;20008;-94
2024/02/25 06:16:46;;;;;;;14.35;5.53;;;;;;;;;;6185242;23;19997;-95
2024/02/25 06:19:11;;;;;;;12.30;5.85;;;;;;;;;;6185588;23;20079;-94
2024/02/25 06:21:36;;;;;;;17.30;6.17;;;;;;;;;;6185476;23;20004;-93
2024/02/25 06:24:03;;;;;;;12.52;5.68;;;;;;;;;;6185166;23;20225;-93
2024/02/25 06:26:28;;;;;;;15.48;6.65;;;;;;;;;;6185132;23;20447;-93
2024/02/25 06:28:54;;;;;;;13.65;7.63;;;;;;;;;;6185630;23;20013;-94
2024/02/25 06:31:19;;;;;;;11.32;6.70;;;;;;;;;;6185661;23;20004;-94
2024/02/25 06:33:44;;;;;;;17.33;7.13;;;;;;;;;;6185474;23;20004;-93
2024/02/25 06:36:19;;;;;;;20.23;8.25;;;;;;;;;;6185162;23;20091;-94
2024/02/25 06:38:45;;;;;;;15.40;6.95;;;;;;;;;;6185214;23;20038;-95
2024/02/25 06:41:17;;;;;;;15.43;7.85;;;;;;;;;;6185356;23;20004;-94
2024/02/25 06:43:43;;;;;;;13.85;6.88;;;;;;;;;;6185177;23;20009;-95
2024/02/25 06:46:08;;;;;;;12.73;6.57;;;;;;;;;;6185443;23;20035;-94
2024/02/25 06:48:33;;;;;;;17.33;7.05;;;;;;;;;;6185238;23;20400;-94
2024/02/25 06:50:58;;;;;;;15.70;7.25;;;;;;;;;;6187043;23;20001;-95
2024/02/25 06:53:24;;;;;;;15.57;7.67;;;;;;;;;;6185174;23;20468;-94
2024/02/25 06:55:49;;;;;;;16.52;7.97;;;;;;;;;;6184979;23;20253;-94
2024/02/25 06:58:14;;;;;;;18.42;8.50;;;;;;;;;;6184320;23;20025;-94
2024/02/25 07:00:39;;;;;;;16.35;8.75;;;;;;;;;;6184610;23;20019;-94
2024/02/25 07:03:04;;;;;;;18.00;8.80;;;;;;;;;;6186032;23;20004;-94
2024/02/25 07:05:30;;;;;;;18.48;8.80;;;;;;;;;;6185734;23;20227;-93
2024/02/25 07:07:56;;;;;;;15.47;8.83;;;;;;;;;;6184623;23;20035;-93
2024/02/25 07:10:21;;;;;;;15.77;7.65;;;;;;;;;;6184662;23;20219;-94
2024/02/25 07:12:46;;;;;;;17.75;8.82;;;;;;;;;;6184503;23;20032;-94
2024/02/25 07:15:11;;;;;;;17.88;8.07;;;;;;;;;;6184586;23;20320;-94
2024/02/25 07:17:38;;;;;;;13.27;7.72;;;;;;;;;;6184640;23;20328;-95
2024/02/25 07:20:06;;;;;;;14.85;8.02;;;;;;;;;;6184392;23;20005;-94
2024/02/25 07:22:31;;;;;;;18.88;9.38;;;;;;;;;;6185233;23;20059;-94
2024/02/25 07:24:56;;;;;;;15.20;7.80;;;;;;;;;;6184761;23;20009;-94
2024/02/25 07:27:21;;;;;;;19.63;7.63;;;;;;;;;;6184757;23;20239;-95
2024/02/25 07:29:46;;;;;;;18.70;8.80;;;;;;;;;;6184479;23;20288;-94
2024/02/25 07:32:11;;;;;;;14.80;8.97;;;;;;;;;;6184856;23;19993;-93
2024/02/25 07:34:37;;;;;;;16.13;8.20;;;;;;;;;;6185135;23;20321;-93
2024/02/25 07:37:02;;;;;;;16.52;8.10;;;;;;;;;;6183748;23;20295;-93
2024/02/25 07:39:27;;;;;;;16.83;7.25;;;;;;;;;;6184015;23;20005;-92
2024/02/25 07:41:53;;;;;;;14.93;7.67;;;;;;;;;;6184167;23;20328;-94
2024/02/25 07:44:18;;;;;;;17.92;8.30;;;;;;;;;;6184042;23;20700;-94
2024/02/25 07:46:43;;;;;;;20.10;9.52;;;;;;;;;;6159114;23;20305;-93
2024/02/25 07:49:08;;;;;;;20.00;8.55;;;;;;;;;;6159150;23;20479;-94
2024/02/25 07:51:34;;;;;;;18.60;8.68;;;;;;;;;;6159410;23;19997;-94
2024/02/25 07:54:00;;;;;;;15.40;9.48;;;;;;;;;;6159394;23;20009;-93
2024/02/25 07:56:27;;;;;;;19.52;10.00;;;;;;;;;;6159031;23;20375;-94
2024/02/25 07:58:52;;;;;;;15.38;9.25;;;;;;;;;;6159000;23;19997;-93
2024/02/25 08:01:17;;;;;;;19.05;8.50;;;;;;;;;;6159225;23;20059;-92
2024/02/25 08:03:42;;;;;;;14.43;7.15;;;;;;;;;;6159376;23;20000;-93
2024/02/25 08:06:08;;;;;;;12.83;8.13;;;;;;;;;;6159833;23;20031;-93
2024/02/25 08:08:33;;;;;;;16.63;9.80;;;;;;;;;;6158799;23;20293;-94
2024/02/25 08:10:58;;;;;;;16.40;8.90;;;;;;;;;;6158815;23;20601;-94
2024/02/25 08:13:23;;;;;;;19.58;9.35;;;;;;;;;;6185301;23;20327;-94
2024/02/25 08:15:48;;;;;;;17.88;8.82;;;;;;;;;;6159246;23;20361;-94
2024/02/25 08:18:14;;;;;;;14.50;8.43;;;;;;;;;;6185804;23;20003;-94
2024/02/25 08:20:39;;;;;;;15.55;8.55;;;;;;;;;;6159403;23;20072;-94
2024/02/25 08:23:04;;;;;;;17.97;9.40;;;;;;;;;;6185803;23;20001;-94
2024/02/25 08:25:29;;;;;;;16.80;8.60;;;;;;;;;;6159215;23;20230;-94
2024/02/25 08:27:54;;;;;;;14.50;8.63;;;;;;;;;;6185634;23;20009;-93
2024/02/25 08:30:22;;;;;;;16.88;8.20;;;;;;;;;;6159137;23;20227;-93
2024/02/25 08:32:47;;;;;;;16.75;7.70;;;;;;;;;;6158790;23;20510;-94
2024/02/25 08:35:12;;;;;;;14.32;7.38;;;;;;;;;;6158944;23;19993;-94
2024/02/25 08:37:39;;;;;;;12.13;7.10;;;;;;;;;;6185040;23;20071;-94
2024/02/25 08:40:04;;;;;;;18.80;7.35;;;;;;;;;;6158871;23;20011;-94
2024/02/25 08:42:30;;;;;;;15.20;6.78;;;;;;;;;;6158680;23;20029;-95
2024/02/25 08:44:55;;;;;;;13.27;7.37;;;;;;;;;;6162650;23;20420;-95
2024/02/25 08:47:20;;;;;;;14.30;7.40;;;;;;;;;;6183328;23;20231;-94
2024/02/25 08:49:45;;;;;;;14.93;6.53;;;;;;;;;;6183343;23;20424;-93
2024/02/25 08:52:10;;;;;;;14.05;6.43;;;;;;;;;;6183823;23;20554;-94
2024/02/25 08:54:37;;;;;;;12.52;6.45;;;;;;;;;;6183420;23;20379;-94
2024/02/25 08:57:02;;;;;;;16.65;6.53;;;;;;;;;;6183360;23;20001;-94
2024/02/25 08:59:27;;;;;;;14.68;6.95;;;;;;;;;;6183366;23;20316;-93
2024/02/25 09:01:53;;;;;;;11.18;6.57;;;;;;;;;;6183301;23;19993;-93
2024/02/25 09:04:18;;;;;;;11.50;7.18;;;;;;;;;;6183341;23;20005;-94
2024/02/25 09:06:44;;;;;;;11.23;6.43;;;;;;;;;;6183587;23;20321;-94
2024/02/25 09:09:09;;;;;;;16.38;6.75;;;;;;;;;;6183268;23;20088;-94
2024/02/25 09:11:34;;;;;;;14.57;6.68;;;;;;;;;;6183241;23;19997;-93
2024/02/25 09:13:59;;;;;;;12.85;6.50;;;;;;;;;;6183425;23;20016;-94
2024/02/25 09:16:25;;;;;;;19.60;9.03;;;;;;;;;;6183431;23;20005;-94
2024/02/25 09:18:50;;;;;;;12.50;6.30;;;;;;;;;;6183358;23;20223;-92
2024/02/25 09:21:15;;;;;;;13.00;5.53;;;;;;;;;;6184578;23;20227;-93
2024/02/25 09:23:41;;;;;;;13.68;5.35;;;;;;;;;;6185385;23;20231;-94
2024/02/25 09:26:07;;;;;;;9.52;5.55;;;;;;;;;;6185119;23;20436;-94
2024/02/25 09:28:33;;;;;;;8.18;4.75;;;;;;;;;;6185087;23;20019;-93
2024/02/25 09:30:58;;;;;;;9.10;5.07;;;;;;;;;;6185759;23;20375;-94
2024/02/25 09:33:23;;;;;;;10.98;4.97;;;;;;;;;;6185974;23;20055;-93
2024/02/25 09:35:48;;;;;;;12.17;4.67;;;;;;;;;;6185723;23;20442;-94
2024/02/25 09:38:14;;;;;;;11.30;4.33;;;;;;;;;;6186008;23;20318;-94
2024/02/25 09:40:39;;;;;;;9.90;4.18;;;;;;;;;;6185632;23;20245;-95
2024/02/25 09:43:09;;;;;;;16.50;5.05;;;;;;;;;;6186349;23;20005;-95
2024/02/25 09:45:36;;;;;;;8.75;3.97;;;;;;;;;;6185864;23;20005;-95
2024/02/25 09:48:02;;;;;;;17.02;5.35;;;;;;;;;;6185643;23;20028;-93
2024/02/25 09:50:29;;;;;;;11.23;4.45;;;;;;;;;;6185542;23;20012;-93
2024/02/25 09:52:54;;;;;;;17.42;4.68;;;;;;;;;;6186030;23;20430;-94
2024/02/25 09:55:20;;;;;;;21.58;6.38;;;;;;;;;;6185595;23;20001;-95
2024/02/25 09:57:47;;;;;;;14.73;5.32;;;;;;;;;;6187603;23;20005;-94
2024/02/25 10:00:12;;;;;;;13.00;5.18;;;;;;;;;;6185849;23;20412;-94
2024/02/25 10:02:37;;;;;;;13.93;4.65;;;;;;;;;;6186640;23;20004;-94
2024/02/25 10:05:03;;;;;;;15.82;5.35;;;;;;;;;;6185807;23;19993;-94
2024/02/25 10:07:29;;;;;;;14.15;6.07;;;;;;;;;;6185934;23;20016;-95
2024/02/25 10:09:55;;;;;;;13.85;6.25;;;;;;;;;;6186331;23;20020;-94
2024/02/25 10:12:21;;;;;;;13.63;5.90;;;;;;;;;;6185862;23;20500;-94
2024/02/25 10:14:51;;;;;;;8.75;5.35;;;;;;;;;;6186449;23;20035;-95
2024/02/25 10:17:16;;;;;;;14.18;5.30;;;;;;;;;;6186296;23;20076;-94
2024/02/25 10:19:50;;;;;;;13.30;6.20;;;;;;;;;;6186808;23;19997;-94
2024/02/25 10:22:16;;;;;;;9.70;5.32;;;;;;;;;;6186048;23;20771;-94
2024/02/25 10:24:43;;;;;;;14.32;5.53;;;;;;;;;;6185295;23;20328;-94
2024/02/25 10:27:13;;;;;;;24.52;5.45;;;;;;;;;;6185604;23;19993;-93
2024/02/25 10:29:51;;;;;;;16.10;5.25;;;;;;;;;;6185969;23;20012;-93
2024/02/25 10:32:20;;;;;;;13.35;5.18;;;;;;;;;;6185402;23;20009;-93
2024/02/25 10:34:46;;;;;;;20.70;6.47;;;;;;;;;;6185799;23;20324;-94
2024/02/25 10:37:12;;;;;;;18.50;5.47;;;;;;;;;;6185799;23;20353;-94
2024/02/25 10:39:37;;;;;;;17.95;5.10;;;;;;;;;;6185298;23;20008;-95
2024/02/25 10:42:03;;;;;;;13.55;5.07;;;;;;;;;;6185124;23;20001;-94
2024/02/25 10:44:28;;;;;;;12.52;4.13;;;;;;;;;;6185999;23;20001;-94
2024/02/25 10:46:54;;;;;;;18.13;4.53;;;;;;;;;;6160706;23;19997;-94
2024/02/25 10:49:20;;;;;;;43.53;8.52;;;;;;;;;;6160546;23;20088;-94
2024/02/25 10:51:46;;;;;;;18.35;4.53;;;;;;;;;;6161072;23;19993;-93
2024/02/25 10:54:12;;;;;;;19.45;4.47;;;;;;;;;;6160692;23;20383;-94
2024/02/25 10:56:39;;;;;;;15.60;4.30;;;;;;;;;;6160594;23;20000;-93
2024/02/25 10:59:07;;;;;;;22.30;4.22;;;;;;;;;;6160736;23;20439;-93
2024/02/25 11:01:33;;;;;;;24.48;5.38;;;;;;;;;;6188381;23;19990;-93
2024/02/25 11:03:58;;;;;;;21.38;4.60;;;;;;;;;;6161003;23;20007;-94
2024/02/25 11:06:33;;;;;;;16.85;4.57;;;;;;;;;;6161032;23;20020;-94
2024/02/25 11:09:06;;;;;;;15.25;4.43;;;;;;;;;;6159743;23;20013;-95
2024/02/25 11:11:31;;;;;;;17.10;3.75;;;;;;;;;;6160560;23;20001;-93
2024/02/25 11:13:58;;;;;;;15.63;4.10;;;;;;;;;;6162452;23;20059;-94
2024/02/25 11:16:30;;;;;;;20.15;4.55;;;;;;;;;;6188875;23;20000;-94
2024/02/25 11:18:59;;;;;;;15.20;3.95;;;;;;;;;;6162802;23;20001;-94
2024/02/25 11:21:26;;;;;;;18.08;5.28;;;;;;;;;;6161486;23;20317;-93
2024/02/25 11:23:51;;;;;;;27.80;4.60;;;;;;;;;;6161213;23;20056;-94
2024/02/25 11:26:35;;;;;;;15.00;4.50;;;;;;;;;;6161056;23;20012;-93
2024/02/25 11:29:19;;;;;;;16.77;3.83;;;;;;;;;;6160573;23;20013;-94
2024/02/25 11:31:59;;;;;;;17.27;3.63;;;;;;;;;;6160021;23;19997;-94
2024/02/25 11:34:35;;;;;;;13.98;4.32;;;;;;;;;;6159354;23;20041;-93
2024/02/25 11:37:01;;;;;;;14.68;3.92;;;;;;;;;;6159609;23;20001;-94
2024/02/25 11:39:27;;;;;;;15.48;4.65;;;;;;;;;;6160250;23;20001;-93
2024/02/25 11:41:56;;;;;;;14.98;3.17;;;;;;;;;;6162972;23;20036;-94
2024/02/25 11:44:25;;;;;;;17.27;4.47;;;;;;;;;;6160149;23;19997;-93
2024/02/25 11:46:57;;;;;;;27.83;4.13;;;;;;;;;;6159771;23;20427;-93
2024/02/25 11:49:22;;;;;;;19.02;3.08;;;;;;;;;;6159574;23;20016;-94
2024/02/25 11:51:48;;;;;;;22.48;5.05;;;;;;;;;;6160310;23;19997;-94
2024/02/25 11:54:13;;;;;;;33.60;7.70;;;;;;;;;;6159555;23;20324;-93
2024/02/25 11:56:38;;;;;;;16.25;4.00;;;;;;;;;;6159038;23;20001;-93
2024/02/25 11:59:04;;;;;;;19.52;3.65;;;;;;;;;;6159032;23;20048;-94
2024/02/25 12:01:29;;;;;;;19.42;3.40;;;;;;;;;;6160034;23;20004;-93
2024/02/25 12:03:54;;;;;;;22.75;3.78;;;;;;;;;;6160360;23;20001;-93
2024/02/25 12:06:19;;;;;;;18.75;3.15;;;;;;;;;;6186275;23;20049;-94
2024/02/25 12:08:46;;;;;;;15.67;4.50;;;;;;;;;;6186100;23;20082;-93
2024/02/25 12:11:12;;;;;;;17.77;3.85;;;;;;;;;;6160706;23;20229;-93
2024/02/25 12:13:39;;;;;;;14.82;3.58;;;;;;;;;;6160940;23;20080;-93
2024/02/25 12:16:04;;;;;;;25.45;5.07;;;;;;;;;;6160485;23;20312;-93
2024/02/25 12:18:30;;;;;;;14.23;3.55;;;;;;;;;;6164003;23;20054;-93
2024/02/25 12:20:55;;;;;;;9.27;2.97;;;;;;;;;;6162136;23;20071;-94
2024/02/25 12:23:20;;;;;;;20.45;3.67;;;;;;;;;;6165912;23;20005;-93
2024/02/25 12:25:47;;;;;;;16.42;4.20;;;;;;;;;;6162146;23;20032;-94
2024/02/25 12:28:13;;;;;;;22.23;4.55;;;;;;;;;;6162101;23;20013;-94
2024/02/25 12:30:39;;;;;;;20.33;4.43;;;;;;;;;;6162992;23;19997;-94
2024/02/25 12:33:06;;;;;;;24.42;4.85;;;;;;;;;;6166149;23;20001;-94
2024/02/25 12:35:32;;;;;;;17.05;4.55;;;;;;;;;;6164139;23;20141;-93
2024/02/25 12:37:57;;;;;;;16.73;4.55;;;;;;;;;;6160949;23;20001;-93
2024/02/25 12:40:23;;;;;;;18.35;4.75;;;;;;;;;;6159522;23;20043;-93
2024/02/25 12:42:48;;;;;;;17.33;6.80;;;;;;;;;;6158962;23;20044;-94
2024/02/25 12:45:14;;;;;;;18.42;4.70;;;;;;;;;;6166645;23;20012;-93
2024/02/25 12:47:39;;;;;;;17.60;4.80;;;;;;;;;;6183918;23;20032;-94
2024/02/25 12:50:05;;;;;;;13.32;4.72;;;;;;;;;;6184716;23;20083;-93
2024/02/25 12:52:30;;;;;;;14.82;5.05;;;;;;;;;;6184296;23;19993;-93
2024/02/25 12:54:55;;;;;;;17.70;5.18;;;;;;;;;;6185538;23;20391;-93
2024/02/25 12:57:20;;;;;;;20.75;5.53;;;;;;;;;;6187087;23;20016;-93
2024/02/25 12:59:46;;;;;;;19.17;6.30;;;;;;;;;;6187686;23;20005;-93
2024/02/25 13:02:11;;;;;;;18.33;5.18;;;;;;;;;;6189498;23;20029;-94
2024/02/25 13:04:37;;;;;;;12.07;5.78;;;;;;;;;;6188079;23;20385;-94
2024/02/25 13:07:02;;;;;;;19.23;5.88;;;;;;;;;;6185455;23;20080;-94
2024/02/25 13:09:28;;;;;;;23.52;7.07;;;;;;;;;;6184339;23;20039;-94
2024/02/25 13:11:53;;;;;;;18.45;5.03;;;;;;;;;;6184604;23;20456;-94
2024/02/25 13:14:18;;;;;;;19.67;6.63;;;;;;;;;;6186596;23;20049;-92
2024/02/25 13:16:44;;;;;;;18.35;6.60;;;;;;;;;;6184839;23;20225;-94
2024/02/25 13:19:09;;;;;;;19.98;5.95;;;;;;;;;;6183077;23;20356;-93
2024/02/25 13:21:35;;;;;;;17.20;5.80;;;;;;;;;;6183515;23;20004;-94
2024/02/25 13:24:00;;;;;;;16.52;6.80;;;;;;;;;;6184240;23;20371;-93
2024/02/25 13:26:25;;;;;;;21.58;6.07;;;;;;;;;;6189167;23;20020;-95
2024/02/25 13:28:52;;;;;;;29.80;6.57;;;;;;;;;;6196354;23;20498;-95
2024/02/25 13:31:17;;;;;;;34.75;6.70;;;;;;;;;;6199547;23;20329;-94
2024/02/25 13:33:43;;;;;;;16.73;6.65;;;;;;;;;;6197011;23;20005;-95
2024/02/25 13:36:10;;;;;;;24.85;7.97;;;;;;;;;;6189091;23;20026;-96
2024/02/25 13:38:36;;;;;;;27.52;6.95;;;;;;;;;;6186768;23;20033;-95
2024/02/25 13:41:04;;;;;;;24.85;6.47;;;;;;;;;;6197450;23;19985;-96
2024/02/25 13:43:31;;;;;;;13.88;6.13;;;;;;;;;;6203106;23;20032;-94
2024/02/25 13:46:03;;;;;;;20.00;6.15;;;;;;;;;;6207538;23;20013;-95
2024/02/25 13:48:53;;;;;;;20.77;6.90;;;;;;;;;;6208461;23;20028;-96
2024/02/25 13:51:20;;;;;;;22.63;6.32;;;;;;;;;;6200259;23;20009;-95
2024/02/25 13:53:46;;;;;;;25.88;6.05;;;;;;;;;;6198547;23;19997;-95
2024/02/25 13:56:11;;;;;;;27.85;7.70;;;;;;;;;;6188317;23;20064;-95
2024/02/25 13:58:36;;;;;;;20.60;6.80;;;;;;;;;;6186519;23;20368;-92
2024/02/25 14:01:02;;;;;;;17.60;5.83;;;;;;;;;;6186713;23;20011;-95
2024/02/25 14:03:27;;;;;;;24.25;7.43;;;;;;;;;;6184909;23;20330;-94
2024/02/25 14:05:52;;;;;;;18.80;6.13;;;;;;;;;;6183946;23;20000;-94
2024/02/25 14:08:18;;;;;;;17.33;4.90;;;;;;;;;;6186323;23;20321;-95
2024/02/25 14:10:43;;;;;;;22.73;6.22;;;;;;;;;;6187633;23;20001;-95
2024/02/25 14:13:08;;;;;;;25.67;7.32;;;;;;;;;;6187444;23;20072;-95
2024/02/25 14:15:33;;;;;;;17.73;4.65;;;;;;;;;;6186453;23;20092;-94
2024/02/25 14:17:59;;;;;;;22.20;5.25;;;;;;;;;;6185891;23;20001;-95
2024/02/25 14:20:28;;;;;;;29.03;5.33;;;;;;;;;;6186385;23;19997;-95
2024/02/25 14:22:55;;;;;;;17.58;5.43;;;;;;;;;;6185918;23;20231;-95
2024/02/25 14:25:20;;;;;;;23.35;5.47;;;;;;;;;;6185350;23;20001;-95